createdAt,value
2022-09-20T00:01:35.689Z,101819.50
2022-09-20T00:04:06.977Z,101829.75
2022-09-20T00:06:36.907Z,101813.88
2022-09-20T00:09:06.319Z,101818.81
2022-09-20T00:11:36.421Z,101818.13
2022-09-20T00:14:09.455Z,101829.84
2022-09-20T00:16:40.674Z,101820.41
2022-09-20T00:19:10.356Z,101819.56
2022-09-20T00:21:39.968Z,101815.16
2022-09-20T00:24:08.424Z,101818.78
2022-09-20T00:26:36.675Z,101824.56
2022-09-20T00:29:05.568Z,101831.28
2022-09-20T00:31:35.748Z,101827.13
2022-09-20T00:34:21.354Z,101824.66
2022-09-20T00:36:51.188Z,101828.28
2022-09-20T00:39:19.389Z,101824.06
2022-09-20T00:41:47.953Z,101832.41
2022-09-20T00:45:00.130Z,101833.84
2022-09-20T00:47:39.316Z,101829.41
2022-09-20T00:50:23.749Z,101828.91
2022-09-20T00:52:59.172Z,101829.53
2022-09-20T00:55:29.065Z,101832.94
2022-09-20T00:57:58.087Z,101833.75
2022-09-20T01:00:28.910Z,101832.34
2022-09-20T01:03:02.239Z,101830.31
2022-09-20T01:05:30.788Z,101823.03
2022-09-20T01:08:00.527Z,101828.22
2022-09-20T01:10:29.498Z,101827.09
2022-09-20T01:12:57.974Z,101825.38
2022-09-20T01:15:27.995Z,101830.75
2022-09-20T01:17:58.159Z,101827.31
2022-09-20T01:20:29.246Z,101829.06
2022-09-20T01:23:31.404Z,101828.41
2022-09-20T01:26:38.822Z,101830.72
2022-09-20T01:29:24.942Z,101826.28
2022-09-20T01:31:57.943Z,101832.84
2022-09-20T01:34:34.307Z,101833.41
2022-09-20T01:37:13.950Z,101832.59
2022-09-20T01:39:55.204Z,101838.81
2022-09-20T01:42:31.011Z,101838.19
2022-09-20T01:45:06.931Z,101838.66
2022-09-20T01:47:45.920Z,101827.38
2022-09-20T01:50:27.135Z,101844.44
2022-09-20T01:53:35.130Z,101834.91
2022-09-20T01:56:48.534Z,101842.44
2022-09-20T01:59:57.805Z,101844.66
2022-09-20T02:03:04.194Z,101844.28
2022-09-20T02:06:08.821Z,101834.00
2022-09-20T02:09:35.508Z,101846.06
2022-09-20T02:12:46.572Z,101845.00
2022-09-20T02:15:27.721Z,101831.69
2022-09-20T02:18:11.891Z,101831.94
2022-09-20T02:20:52.127Z,101831.06
2022-09-20T02:23:38.243Z,101831.47
2022-09-20T02:26:34.605Z,101823.44
2022-09-20T02:29:19.975Z,101822.47
2022-09-20T02:32:18.427Z,101822.22
2022-09-20T02:35:21.245Z,101830.28
2022-09-20T02:38:06.708Z,101820.72
2022-09-20T02:41:24.012Z,101820.72
2022-09-20T02:44:02.959Z,101817.09
2022-09-20T02:46:38.877Z,101810.00
2022-09-20T02:49:15.667Z,101814.72
2022-09-20T02:51:52.888Z,101807.34
2022-09-20T02:54:35.767Z,101810.31
2022-09-20T02:57:15.140Z,101810.50
2022-09-20T02:59:49.244Z,101817.56
2022-09-20T03:02:28.209Z,101820.78
2022-09-20T03:05:13.046Z,101819.78
2022-09-20T03:07:57.457Z,101810.00
2022-09-20T03:10:35.321Z,101810.25
2022-09-20T03:13:18.737Z,101821.53
2022-09-20T03:16:03.103Z,101818.88
2022-09-20T03:18:43.515Z,101818.00
2022-09-20T03:21:29.398Z,101828.50
2022-09-20T03:24:11.186Z,101823.34
2022-09-20T03:26:52.341Z,101823.59
2022-09-20T03:29:38.397Z,101819.88
2022-09-20T03:32:27.887Z,101827.75
2022-09-20T03:35:14.321Z,101823.38
2022-09-20T03:38:01.755Z,101831.50
2022-09-20T03:40:59.400Z,101834.66
2022-09-20T03:43:55.875Z,101826.38
2022-09-20T03:46:28.524Z,101822.03
2022-09-20T03:49:41.911Z,101822.06
2022-09-20T03:52:27.203Z,101820.50
2022-09-20T03:56:03.092Z,101827.97
2022-09-20T03:59:03.543Z,101826.69
2022-09-20T04:01:55.041Z,101829.59
2022-09-20T04:04:31.532Z,101827.84
2022-09-20T04:07:14.588Z,101832.00
2022-09-20T04:10:04.775Z,101830.72
2022-09-20T04:12:46.244Z,101831.22
2022-09-20T04:15:33.651Z,101829.97
2022-09-20T04:18:12.606Z,101836.38
2022-09-20T04:20:48.978Z,101837.03
2022-09-20T04:23:35.928Z,101830.66
2022-09-20T04:26:05.156Z,101825.91
2022-09-20T04:28:41.939Z,101836.69
2022-09-20T04:31:27.070Z,101830.25
2022-09-20T04:33:58.466Z,101829.06
2022-09-20T04:36:56.861Z,101833.22
2022-09-20T04:39:42.460Z,101827.03
2022-09-20T04:43:13.481Z,101835.63
2022-09-20T04:46:19.571Z,101837.03
2022-09-20T04:49:40.575Z,101834.25
2022-09-20T04:53:10.380Z,101835.63
2022-09-20T04:55:55.694Z,101843.38
2022-09-20T04:59:06.686Z,101846.13
2022-09-20T05:02:29.666Z,101850.03
2022-09-20T05:05:49.365Z,101850.19
2022-09-20T05:08:59.036Z,101851.00
2022-09-20T05:12:27.982Z,101850.81
2022-09-20T05:15:24.576Z,101854.41
2022-09-20T05:18:33.042Z,101854.47
2022-09-20T05:21:24.315Z,101863.69
2022-09-20T05:24:25.089Z,101851.63
2022-09-20T05:27:11.046Z,101854.91
2022-09-20T05:29:51.564Z,101865.63
2022-09-20T05:32:27.356Z,101856.34
2022-09-20T05:35:05.799Z,101852.00
2022-09-20T05:37:45.589Z,101861.22
2022-09-20T05:40:29.142Z,101865.16
2022-09-20T05:43:11.275Z,101880.91
2022-09-20T05:45:58.119Z,101878.47
2022-09-20T05:48:38.645Z,101872.84
2022-09-20T05:51:21.984Z,101879.72
2022-09-20T05:54:25.367Z,101876.13
2022-09-20T05:57:05.407Z,101874.97
2022-09-20T05:59:51.531Z,101873.91
2022-09-20T06:02:44.617Z,101876.91
2022-09-20T06:05:18.003Z,101874.50
2022-09-20T06:08:16.207Z,101878.34
2022-09-20T06:11:19.282Z,101879.63
2022-09-20T06:14:06.013Z,101880.75
2022-09-20T06:16:45.341Z,101889.09
2022-09-20T06:19:23.759Z,101892.72
2022-09-20T06:21:55.459Z,101896.38
2022-09-20T06:24:38.854Z,101890.41
2022-09-20T06:27:14.804Z,101893.66
2022-09-20T06:29:50.468Z,101895.59
2022-09-20T06:32:19.551Z,101897.00
2022-09-20T06:34:49.131Z,101901.91
2022-09-20T06:37:58.374Z,101910.06
2022-09-20T06:40:57.534Z,101908.31
2022-09-20T06:43:26.230Z,101906.59
2022-09-20T06:45:54.495Z,101905.97
2022-09-20T06:48:22.718Z,101909.53
2022-09-20T06:50:52.348Z,101905.81
2022-09-20T06:53:28.389Z,101914.41
2022-09-20T06:55:58.639Z,101916.41
2022-09-20T06:58:27.347Z,101916.63
2022-09-20T07:00:55.660Z,101919.13
2022-09-20T07:03:23.978Z,101912.16
2022-09-20T07:05:53.538Z,101912.50
2022-09-20T07:08:21.773Z,101909.13
2022-09-20T07:10:50.966Z,101912.88
2022-09-20T07:13:20.892Z,101925.84
2022-09-20T07:15:49.307Z,101923.88
2022-09-20T07:18:17.529Z,101919.81
2022-09-20T07:20:45.773Z,101913.56
2022-09-20T07:23:15.108Z,101913.84
2022-09-20T07:25:43.374Z,101916.50
2022-09-20T07:28:11.600Z,101919.16
2022-09-20T07:30:41.223Z,101925.81
2022-09-20T07:33:10.484Z,101925.75
2022-09-20T07:35:38.725Z,101935.28
2022-09-20T07:38:06.940Z,101940.09
2022-09-20T07:40:35.290Z,101933.25
2022-09-20T07:43:03.568Z,101926.81
2022-09-20T07:45:32.240Z,101918.22
2022-09-20T07:48:05.321Z,101921.09
2022-09-20T07:50:33.939Z,101913.75
2022-09-20T07:53:02.824Z,101916.16
2022-09-20T07:55:31.327Z,101923.59
2022-09-20T07:57:59.568Z,101933.81
2022-09-20T08:00:27.826Z,101934.19
2022-09-20T08:03:01.410Z,101941.00
2022-09-20T08:05:29.671Z,101939.41
2022-09-20T08:07:59.272Z,101937.53
2022-09-20T08:10:27.688Z,101941.34
2022-09-20T08:15:44.888Z,101945.34
2022-09-20T08:18:14.796Z,101950.44
2022-09-20T08:20:43.047Z,101954.09
2022-09-20T08:23:23.487Z,101962.53
2022-09-20T08:25:52.306Z,101956.50
2022-09-20T08:28:20.517Z,101958.38
2022-09-20T08:30:49.040Z,101962.97
2022-09-20T08:33:18.634Z,101955.63
2022-09-20T08:35:50.626Z,101961.06
2022-09-20T08:41:21.936Z,101953.44
2022-09-20T08:43:55.662Z,101951.13
2022-09-20T08:46:28.865Z,101960.97
2022-09-20T08:49:00.000Z,101963.16
2022-09-20T08:51:31.483Z,101967.03
2022-09-20T08:54:00.547Z,101966.13
2022-09-20T08:56:33.227Z,101965.28
2022-09-20T08:59:01.583Z,101961.34
2022-09-20T09:01:32.431Z,101971.38
2022-09-20T09:04:13.326Z,101965.78
2022-09-20T09:06:42.060Z,101963.50
2022-09-20T09:09:19.682Z,101970.22
2022-09-20T09:11:49.195Z,101967.78
2022-09-20T09:14:45.379Z,101971.13
2022-09-20T09:17:17.441Z,101978.22
2022-09-20T09:19:50.348Z,101971.34
2022-09-20T09:22:27.331Z,101971.84
2022-09-20T09:25:14.400Z,101965.47
2022-09-20T09:27:53.520Z,101967.81
2022-09-20T09:30:26.329Z,101968.31
2022-09-20T09:33:16.590Z,101965.13
2022-09-20T09:35:53.295Z,101969.44
2022-09-20T09:38:24.271Z,101969.78
2022-09-20T09:40:55.690Z,101974.38
2022-09-20T09:43:29.135Z,101966.91
2022-09-20T09:46:17.508Z,101967.84
2022-09-20T09:48:49.918Z,101955.91
2022-09-20T09:51:23.467Z,101959.47
2022-09-20T09:53:52.838Z,101963.59
2022-09-20T09:56:40.332Z,101967.44
2022-09-20T09:59:42.564Z,101975.25
2022-09-20T10:02:41.987Z,101970.09
2022-09-20T10:05:17.337Z,101976.66
2022-09-20T10:07:56.894Z,101975.13
2022-09-20T10:10:36.653Z,101971.31
2022-09-20T10:13:17.802Z,101977.16
2022-09-20T10:15:56.074Z,101977.59
2022-09-20T10:18:42.331Z,101967.00
2022-09-20T10:21:33.749Z,101974.09
2022-09-20T10:24:17.689Z,101967.50
2022-09-20T10:27:23.415Z,101977.19
2022-09-20T10:30:10.364Z,101969.22
2022-09-20T10:33:03.414Z,101962.66
2022-09-20T10:35:52.681Z,101962.78
2022-09-20T10:38:30.328Z,101960.72
2022-09-20T10:41:41.885Z,101960.00
2022-09-20T10:44:24.152Z,101958.06
2022-09-20T10:47:04.309Z,101963.81
2022-09-20T10:49:43.608Z,101963.31
2022-09-20T10:52:42.605Z,101963.75
2022-09-20T10:55:28.041Z,101960.81
2022-09-20T10:58:38.667Z,101960.22
2022-09-20T11:01:17.673Z,101956.84
2022-09-20T11:04:07.757Z,101957.69
2022-09-20T11:06:51.724Z,101954.16
2022-09-20T11:09:25.898Z,101964.34
2022-09-20T11:12:02.086Z,101965.81
2022-09-20T11:14:39.339Z,101974.97
2022-09-20T11:17:16.712Z,101966.94
2022-09-20T11:19:57.602Z,101968.16
2022-09-20T11:22:33.866Z,101972.56
2022-09-20T11:25:14.837Z,101977.56
2022-09-20T11:27:52.132Z,101965.09
2022-09-20T11:30:23.934Z,101973.25
2022-09-20T11:33:01.557Z,101968.78
2022-09-20T11:35:36.019Z,101974.31
2022-09-20T11:38:12.043Z,101973.91
2022-09-20T11:40:46.983Z,101977.06
2022-09-20T11:43:18.374Z,101980.31
2022-09-20T11:45:53.934Z,101979.28
2022-09-20T11:48:26.717Z,101977.72
2022-09-20T11:51:31.400Z,101979.03
2022-09-20T11:54:36.739Z,101985.69
2022-09-20T11:57:06.051Z,101987.75
2022-09-20T11:59:38.376Z,101991.84
2022-09-20T12:02:24.060Z,101986.69
2022-09-20T12:04:53.881Z,101978.16
2022-09-20T12:07:26.968Z,101984.25
2022-09-20T12:09:59.125Z,101980.00
2022-09-20T12:12:41.531Z,101977.56
2022-09-20T12:15:26.230Z,101978.03
2022-09-20T12:18:28.261Z,101982.41
2022-09-20T12:21:15.409Z,101976.44
2022-09-20T12:24:23.019Z,101974.97
2022-09-20T12:27:00.031Z,101976.97
2022-09-20T12:30:05.559Z,101985.09
2022-09-20T12:32:55.034Z,101975.75
2022-09-20T12:36:17.945Z,101974.13
2022-09-20T12:39:00.083Z,101969.19
2022-09-20T12:41:29.333Z,101970.72
2022-09-20T12:44:22.956Z,101970.69
2022-09-20T12:46:57.116Z,101963.50
2022-09-20T12:50:00.148Z,101971.75
2022-09-20T12:52:53.700Z,101970.38
2022-09-20T12:55:46.906Z,101967.06
2022-09-20T12:58:49.799Z,101963.50
2022-09-20T13:01:39.310Z,101962.84
2022-09-20T13:05:02.902Z,101960.03
2022-09-20T13:07:44.908Z,101960.66
2022-09-20T13:10:43.071Z,101965.22
2022-09-20T13:13:33.546Z,101970.44
2022-09-20T13:16:06.044Z,101960.72
2022-09-20T13:18:37.842Z,101956.31
2022-09-20T13:21:09.512Z,101967.25
2022-09-20T13:23:49.624Z,101967.72
2022-09-20T13:26:24.058Z,101965.63
2022-09-20T13:28:57.068Z,101962.34
2022-09-20T13:31:32.086Z,101959.16
2022-09-20T13:34:22.281Z,101967.91
2022-09-20T13:36:58.281Z,101956.69
2022-09-20T13:39:35.319Z,101954.13
2022-09-20T13:42:11.462Z,101955.22
2022-09-20T13:44:40.644Z,101949.38
2022-09-20T13:47:25.915Z,101953.78
2022-09-20T13:49:54.539Z,101947.59
2022-09-20T13:52:28.667Z,101949.50
2022-09-20T13:54:58.617Z,101942.69
2022-09-20T13:57:31.056Z,101947.09
2022-09-20T14:00:01.742Z,101942.63
2022-09-20T14:02:33.845Z,101958.06
2022-09-20T14:05:04.988Z,101948.38
2022-09-20T14:07:36.620Z,101943.63
2022-09-20T14:10:27.126Z,101952.75
2022-09-20T14:12:56.787Z,101944.72
2022-09-20T14:15:26.290Z,101945.56
2022-09-20T14:17:55.493Z,101949.34
2022-09-20T14:20:24.278Z,101951.66
2022-09-20T14:22:56.117Z,101952.84
2022-09-20T14:25:29.703Z,101950.75
2022-09-20T14:28:17.422Z,101954.34
2022-09-20T14:30:47.642Z,101958.91
2022-09-20T14:33:20.536Z,101953.59
2022-09-20T14:35:51.747Z,101956.91
2022-09-20T14:38:26.012Z,101951.34
2022-09-20T14:40:56.812Z,101948.25
2022-09-20T14:43:31.422Z,101949.50
2022-09-20T14:46:04.124Z,101949.81
2022-09-20T14:48:40.650Z,101956.31
2022-09-20T14:51:26.193Z,101953.00
2022-09-20T14:54:25.490Z,101951.13
2022-09-20T14:56:57.923Z,101959.50
2022-09-20T14:59:28.500Z,101956.84
2022-09-20T15:02:05.262Z,101958.63
2022-09-20T15:04:37.705Z,101961.72
2022-09-20T15:07:08.787Z,101959.38
2022-09-20T15:09:37.084Z,101960.34
2022-09-20T15:12:12.572Z,101961.69
2022-09-20T15:14:41.504Z,101959.88
2022-09-20T15:17:15.048Z,101958.44
2022-09-20T15:19:43.464Z,101958.38
2022-09-20T15:22:12.281Z,101970.31
2022-09-20T15:24:42.176Z,101968.22
2022-09-20T15:27:12.681Z,101965.34
2022-09-20T15:29:41.307Z,101965.97
2022-09-20T15:32:11.990Z,101964.38
2022-09-20T15:34:40.302Z,101965.81
2022-09-20T15:37:08.891Z,101960.00
2022-09-20T15:39:37.144Z,101964.59
2022-09-20T15:42:07.008Z,101963.53
2022-09-20T15:44:36.625Z,101960.13
2022-09-20T15:47:06.171Z,101960.59
2022-09-20T15:49:35.149Z,101955.53
2022-09-20T15:52:03.951Z,101963.03
2022-09-20T15:54:32.187Z,101953.59
2022-09-20T15:57:00.462Z,101957.88
2022-09-20T15:59:29.339Z,101957.50
2022-09-20T16:01:59.592Z,101959.81
2022-09-20T16:04:28.046Z,101952.22
2022-09-20T16:06:56.416Z,101955.94
2022-09-20T16:09:24.683Z,101965.66
2022-09-20T16:11:58.716Z,101960.00
2022-09-20T16:14:27.123Z,101965.59
2022-09-20T16:16:58.037Z,101964.84
2022-09-20T16:19:27.043Z,101965.47
2022-09-20T16:21:58.878Z,101955.63
2022-09-20T16:24:29.992Z,101964.00
2022-09-20T16:26:58.998Z,101966.69
2022-09-20T16:29:29.394Z,101977.84
2022-09-20T16:31:59.078Z,101976.84
2022-09-20T16:34:31.485Z,101984.81
2022-09-20T16:37:02.558Z,101979.72
2022-09-20T16:39:31.957Z,101987.63
2022-09-20T16:42:03.625Z,101984.78
2022-09-20T16:44:32.447Z,101992.53
2022-09-20T16:47:01.213Z,101989.19
2022-09-20T16:49:30.919Z,101994.41
2022-09-20T16:51:59.196Z,101987.34
2022-09-20T16:54:31.789Z,101987.13
2022-09-20T16:57:00.649Z,101983.38
2022-09-20T16:59:29.044Z,101991.22
2022-09-20T17:01:57.375Z,101988.19
2022-09-20T17:04:25.641Z,101987.38
2022-09-20T17:06:55.689Z,101990.69
2022-09-20T17:09:23.976Z,101991.13
2022-09-20T17:11:53.726Z,102001.28
2022-09-20T17:14:24.345Z,101994.94
2022-09-20T17:16:52.617Z,101985.34
2022-09-20T17:19:21.840Z,102000.16
2022-09-20T17:21:51.775Z,101994.47
2022-09-20T17:24:23.767Z,101994.88
2022-09-20T17:26:53.612Z,102002.63
2022-09-20T17:29:22.484Z,102007.16
2022-09-20T17:31:55.497Z,102013.31
2022-09-20T17:34:25.457Z,102019.19
2022-09-20T17:36:55.395Z,102014.50
2022-09-20T17:39:25.244Z,102020.94
2022-09-20T17:41:53.924Z,102021.91
2022-09-20T17:44:22.635Z,102023.34
2022-09-20T17:46:53.987Z,102031.56
2022-09-20T17:49:24.412Z,102040.16
2022-09-20T17:51:54.469Z,102037.66
2022-09-20T17:54:25.426Z,102040.03
2022-09-20T17:56:55.840Z,102039.69
2022-09-20T17:59:24.898Z,102037.22
2022-09-20T18:01:54.465Z,102044.16
2022-09-20T18:04:24.482Z,102037.38
2022-09-20T18:06:55.342Z,102044.50
2022-09-20T18:09:27.236Z,102046.31
2022-09-20T18:11:56.882Z,102047.25
2022-09-20T18:14:27.401Z,102048.94
2022-09-20T18:16:58.197Z,102056.69
2022-09-20T18:19:32.542Z,102053.28
2022-09-20T18:22:01.566Z,102059.69
2022-09-20T18:24:31.834Z,102059.34
2022-09-20T18:27:00.852Z,102062.13
2022-09-20T18:29:29.444Z,102071.09
2022-09-20T18:31:59.728Z,102077.53
2022-09-20T18:34:33.545Z,102074.38
2022-09-20T18:37:04.563Z,102064.91
2022-09-20T18:39:35.003Z,102073.53
2022-09-20T18:42:04.527Z,102078.50
2022-09-20T18:44:33.673Z,102080.81
2022-09-20T18:47:02.744Z,102083.84
2022-09-20T18:49:31.385Z,102087.59
2022-09-20T18:51:59.991Z,102082.03
2022-09-20T18:54:30.176Z,102082.88
2022-09-20T18:57:01.118Z,102086.03
2022-09-20T18:59:30.376Z,102086.28
2022-09-20T19:02:19.020Z,102094.28
2022-09-20T19:05:20.951Z,102081.91
2022-09-20T19:08:02.785Z,102094.16
2022-09-20T19:10:42.996Z,102086.88
2022-09-20T19:13:32.423Z,102093.66
2022-09-20T19:16:20.670Z,102098.75
2022-09-20T19:19:22.659Z,102095.38
2022-09-20T19:22:00.132Z,102101.78
2022-09-20T19:24:58.218Z,102099.97
2022-09-20T19:27:27.272Z,102104.44
2022-09-20T19:29:57.930Z,102113.06
2022-09-20T19:32:27.664Z,102110.75
2022-09-20T19:35:01.609Z,102108.34
2022-09-20T19:37:39.990Z,102113.19
2022-09-20T19:40:36.454Z,102116.81
2022-09-20T19:43:23.839Z,102118.38
2022-09-20T19:46:05.359Z,102120.56
2022-09-20T19:48:39.883Z,102126.97
2022-09-20T19:51:12.975Z,102132.44
2022-09-20T19:53:42.540Z,102124.91
2022-09-20T19:56:25.887Z,102125.38
2022-09-20T19:58:56.350Z,102128.88
2022-09-20T20:01:27.723Z,102132.81
2022-09-20T20:03:57.210Z,102129.09
2022-09-20T20:06:34.311Z,102132.13
2022-09-20T20:09:14.032Z,102134.56
2022-09-20T20:11:51.959Z,102136.56
2022-09-20T20:14:29.726Z,102146.47
2022-09-20T20:17:13.254Z,102153.13
2022-09-20T20:20:07.252Z,102148.88
2022-09-20T20:23:11.159Z,102144.91
2022-09-20T20:25:50.977Z,102149.69
2022-09-20T20:28:19.210Z,102153.69
2022-09-20T20:30:47.505Z,102151.53
2022-09-20T20:33:18.973Z,102153.22
2022-09-20T20:35:55.169Z,102152.78
2022-09-20T20:38:26.445Z,102150.41
2022-09-20T20:41:04.587Z,102169.00
2022-09-20T20:43:34.708Z,102174.91
2022-09-20T20:46:03.401Z,102166.72
2022-09-20T20:48:33.147Z,102179.09
2022-09-20T20:51:03.818Z,102183.13
2022-09-20T20:53:34.531Z,102180.31
2022-09-20T20:56:08.887Z,102181.69
2022-09-20T20:58:40.879Z,102187.44
2022-09-20T21:01:13.448Z,102186.56
2022-09-20T21:03:46.761Z,102191.22
2022-09-20T21:06:16.519Z,102182.44
2022-09-20T21:08:49.512Z,102189.75
2022-09-20T21:11:23.491Z,102202.13
2022-09-20T21:13:52.179Z,102196.44
2022-09-20T21:16:23.042Z,102197.91
2022-09-20T21:18:52.932Z,102200.47
2022-09-20T21:21:25.860Z,102195.59
2022-09-20T21:23:57.019Z,102196.53
2022-09-20T21:26:27.830Z,102193.16
2022-09-20T21:28:59.084Z,102190.69
2022-09-20T21:31:29.815Z,102196.75
2022-09-20T21:33:59.774Z,102199.16
2022-09-20T21:36:30.603Z,102195.13
2022-09-20T21:38:58.846Z,102199.25
2022-09-20T21:41:29.336Z,102199.72
2022-09-20T21:44:00.125Z,102204.91
2022-09-20T21:46:30.894Z,102204.06
2022-09-20T21:49:03.502Z,102204.69
2022-09-20T21:51:33.152Z,102206.84
2022-09-20T21:54:02.927Z,102203.47
2022-09-20T21:56:33.560Z,102205.88
2022-09-20T21:59:04.023Z,102204.59
2022-09-20T22:01:35.067Z,102207.63
2022-09-20T22:04:09.435Z,102212.38
2022-09-20T22:06:40.103Z,102210.72
2022-09-20T22:09:10.597Z,102210.72
2022-09-20T22:11:41.699Z,102209.66
2022-09-20T22:14:13.988Z,102218.16
2022-09-20T22:16:44.711Z,102213.91
2022-09-20T22:19:19.162Z,102222.09
2022-09-20T22:21:49.516Z,102215.31
2022-09-20T22:24:18.381Z,102212.53
2022-09-20T22:26:49.304Z,102215.53
2022-09-20T22:29:18.520Z,102219.88
2022-09-20T22:31:48.812Z,102219.28
2022-09-20T22:34:20.879Z,102216.88
2022-09-20T22:36:49.361Z,102213.44
2022-09-20T22:39:18.072Z,102211.84
2022-09-20T22:41:47.947Z,102216.06
2022-09-20T22:44:16.365Z,102214.63
2022-09-20T22:46:45.440Z,102216.56
2022-09-20T22:49:13.676Z,102212.91
2022-09-20T22:51:43.310Z,102217.25
2022-09-20T22:54:13.333Z,102213.22
2022-09-20T22:56:42.597Z,102214.31
2022-09-20T22:59:14.030Z,102216.00
2022-09-20T23:01:44.027Z,102212.38
2022-09-20T23:04:14.485Z,102213.06
2022-09-20T23:06:47.019Z,102212.44
2022-09-20T23:09:18.035Z,102215.44
2022-09-20T23:11:47.405Z,102218.22
2022-09-20T23:14:18.100Z,102215.44
2022-09-20T23:16:47.439Z,102217.81
2022-09-20T23:19:16.561Z,102223.81
2022-09-20T23:21:46.560Z,102222.13
2022-09-20T23:24:16.215Z,102212.91
2022-09-20T23:26:45.692Z,102212.25
2022-09-20T23:29:16.026Z,102218.47
2022-09-20T23:31:47.241Z,102216.31
2022-09-20T23:34:17.717Z,102219.22
2022-09-20T23:36:47.977Z,102217.50
2022-09-20T23:39:16.949Z,102214.63
2022-09-20T23:41:50.597Z,102220.31
2022-09-20T23:44:19.451Z,102216.06
2022-09-20T23:46:47.699Z,102222.59
2022-09-20T23:49:15.990Z,102218.72
2022-09-20T23:51:44.303Z,102226.41
2022-09-20T23:54:13.896Z,102220.19
2022-09-20T23:56:42.791Z,102229.38
2022-09-20T23:59:11.041Z,102218.13
